createdAt,value
2019-06-26T00:01:46.962Z,88.10
2019-06-26T00:04:15.545Z,88.10
2019-06-26T00:06:44.063Z,88.10
2019-06-26T00:09:12.606Z,87.70
2019-06-26T00:11:41.383Z,87.60
2019-06-26T00:14:09.898Z,87.30
2019-06-26T00:16:38.428Z,86.90
2019-06-26T00:19:07.050Z,86.70
2019-06-26T00:21:35.818Z,86.70
2019-06-26T00:24:04.394Z,86.90
2019-06-26T00:26:34.431Z,87.40
2019-06-26T00:29:02.902Z,87.70
2019-06-26T00:31:31.386Z,87.70
2019-06-26T00:33:59.844Z,87.90
2019-06-26T00:36:28.311Z,88.00
2019-06-26T00:38:56.831Z,87.70
2019-06-26T00:41:25.332Z,87.70
2019-06-26T00:43:53.779Z,87.70
2019-06-26T00:46:22.272Z,87.80
2019-06-26T00:48:50.783Z,87.90
2019-06-26T00:51:19.367Z,87.90
2019-06-26T00:53:48.068Z,87.90
2019-06-26T00:56:16.612Z,87.60
2019-06-26T00:58:45.063Z,87.50
2019-06-26T01:01:13.718Z,87.50
2019-06-26T01:03:42.318Z,87.30
2019-06-26T01:06:12.431Z,87.20
2019-06-26T01:08:43.304Z,87.10
2019-06-26T01:11:11.820Z,87.00
2019-06-26T01:13:40.534Z,86.90
2019-06-26T01:16:09.003Z,86.60
2019-06-26T01:18:37.520Z,86.90
2019-06-26T01:21:05.977Z,86.50
2019-06-26T01:23:34.415Z,86.30
2019-06-26T01:26:02.903Z,86.30
2019-06-26T01:28:31.401Z,86.70
2019-06-26T01:30:59.925Z,87.40
2019-06-26T01:33:28.381Z,87.00
2019-06-26T01:35:56.842Z,87.00
2019-06-26T01:38:25.279Z,87.20
2019-06-26T01:40:53.798Z,87.10
2019-06-26T01:43:22.309Z,86.80
2019-06-26T01:45:50.769Z,86.80
2019-06-26T01:48:19.244Z,87.00
2019-06-26T01:50:47.783Z,87.40
2019-06-26T01:53:16.239Z,87.60
2019-06-26T01:55:44.722Z,88.40
2019-06-26T01:58:13.361Z,89.20
2019-06-26T02:00:42.266Z,89.40
2019-06-26T02:03:10.797Z,90.20
2019-06-26T02:05:39.302Z,90.40
2019-06-26T02:08:07.771Z,90.70
2019-06-26T02:10:36.222Z,90.90
2019-06-26T02:13:04.680Z,91.20
2019-06-26T02:15:33.132Z,91.30
2019-06-26T02:18:01.672Z,91.30
2019-06-26T02:20:30.235Z,91.20
2019-06-26T02:22:58.784Z,91.30
2019-06-26T02:25:27.234Z,91.40
2019-06-26T02:27:55.706Z,91.60
2019-06-26T02:30:24.294Z,91.80
2019-06-26T02:32:52.839Z,91.90
2019-06-26T02:35:21.428Z,91.90
2019-06-26T02:37:50.154Z,92.00
2019-06-26T02:40:19.237Z,92.00
2019-06-26T02:42:47.787Z,92.10
2019-06-26T02:45:16.443Z,92.10
2019-06-26T02:47:44.904Z,91.90
2019-06-26T02:50:13.517Z,92.00
2019-06-26T02:52:41.982Z,92.00
2019-06-26T02:55:11.788Z,91.70
2019-06-26T02:57:40.310Z,91.80
2019-06-26T03:00:10.026Z,91.80
2019-06-26T03:02:38.559Z,91.60
2019-06-26T03:05:07.746Z,91.60
2019-06-26T03:07:36.242Z,91.50
2019-06-26T03:10:06.700Z,91.50
2019-06-26T03:12:35.518Z,91.40
2019-06-26T03:15:09.763Z,91.60
2019-06-26T03:17:51.013Z,91.70
2019-06-26T03:20:09.258Z,91.70
2019-06-26T03:22:37.725Z,91.70
2019-06-26T03:25:07.039Z,91.70
2019-06-26T03:27:35.586Z,91.70
2019-06-26T03:30:08.169Z,91.40
2019-06-26T03:32:36.612Z,91.40
2019-06-26T03:35:17.494Z,91.30
2019-06-26T03:37:46.094Z,91.00
2019-06-26T03:40:14.888Z,91.00
2019-06-26T03:42:43.602Z,90.80
2019-06-26T03:45:25.004Z,90.50
2019-06-26T03:47:42.647Z,90.40
2019-06-26T03:50:11.496Z,90.30
2019-06-26T03:52:39.940Z,90.10
2019-06-26T03:55:09.520Z,89.70
2019-06-26T03:57:38.092Z,88.60
2019-06-26T04:00:07.413Z,88.40
2019-06-26T04:02:35.861Z,88.20
2019-06-26T04:05:06.243Z,87.60
2019-06-26T04:07:34.687Z,87.20
2019-06-26T04:10:04.356Z,86.40
2019-06-26T04:12:32.830Z,85.90
2019-06-26T04:15:01.364Z,86.50
2019-06-26T04:17:30.038Z,85.80
2019-06-26T04:19:58.603Z,85.50
2019-06-26T04:22:27.037Z,85.00
2019-06-26T04:24:55.696Z,84.30
2019-06-26T04:27:24.135Z,83.40
2019-06-26T04:29:52.575Z,83.60
2019-06-26T04:32:21.102Z,83.00
2019-06-26T04:34:49.693Z,82.60
2019-06-26T04:37:18.219Z,82.30
2019-06-26T04:39:46.650Z,81.50
2019-06-26T04:42:15.193Z,80.90
2019-06-26T04:44:43.650Z,80.40
2019-06-26T04:47:12.118Z,80.40
2019-06-26T04:49:40.614Z,80.00
2019-06-26T04:52:09.167Z,79.90
2019-06-26T04:54:37.626Z,79.80
2019-06-26T04:57:06.147Z,79.70
2019-06-26T04:59:34.794Z,79.00
2019-06-26T05:02:03.354Z,78.50
2019-06-26T05:04:31.806Z,78.30
2019-06-26T05:07:00.512Z,78.20
2019-06-26T05:09:29.022Z,77.90
2019-06-26T05:11:57.982Z,77.40
2019-06-26T05:14:26.600Z,77.10
2019-06-26T05:16:55.049Z,77.00
2019-06-26T05:19:30.859Z,76.60
2019-06-26T05:21:59.498Z,76.20
2019-06-26T05:24:28.162Z,75.50
2019-06-26T05:26:56.649Z,75.30
2019-06-26T05:29:25.114Z,74.90
2019-06-26T05:31:53.659Z,74.30
2019-06-26T05:34:24.590Z,73.60
2019-06-26T05:36:53.131Z,73.60
2019-06-26T05:39:21.655Z,72.80
2019-06-26T05:41:50.157Z,72.80
2019-06-26T05:44:18.787Z,72.30
2019-06-26T05:46:47.253Z,71.60
2019-06-26T05:49:15.803Z,71.10
2019-06-26T05:51:44.590Z,70.30
2019-06-26T05:54:13.130Z,69.60
2019-06-26T05:56:50.490Z,68.90
2019-06-26T05:59:19.388Z,68.30
2019-06-26T06:01:47.820Z,67.30
2019-06-26T06:04:16.439Z,67.20
2019-06-26T06:06:44.929Z,66.40
2019-06-26T06:09:13.414Z,66.00
2019-06-26T06:11:42.040Z,65.60
2019-06-26T06:14:10.523Z,65.70
2019-06-26T06:16:47.508Z,66.30
2019-06-26T06:19:09.225Z,66.40
2019-06-26T06:21:37.675Z,66.30
2019-06-26T06:24:06.338Z,66.10
2019-06-26T06:26:34.946Z,66.30
2019-06-26T06:29:03.953Z,66.00
2019-06-26T06:31:32.406Z,67.30
2019-06-26T06:34:00.945Z,67.60
2019-06-26T06:36:29.378Z,68.90
2019-06-26T06:38:57.841Z,69.30
2019-06-26T06:41:26.272Z,69.20
2019-06-26T06:43:54.773Z,69.20
2019-06-26T06:46:23.238Z,68.60
2019-06-26T06:48:51.675Z,68.20
2019-06-26T06:51:20.130Z,67.30
2019-06-26T06:53:48.643Z,67.20
2019-06-26T06:56:17.258Z,67.30
2019-06-26T06:58:45.781Z,67.10
2019-06-26T07:01:14.351Z,66.80
2019-06-26T07:03:42.843Z,68.00
2019-06-26T07:06:11.386Z,68.10
2019-06-26T07:08:39.968Z,66.80
2019-06-26T07:11:08.911Z,66.90
2019-06-26T07:13:37.339Z,65.60
2019-06-26T07:16:08.667Z,65.00
2019-06-26T07:18:37.094Z,63.40
2019-06-26T07:21:05.621Z,61.70
2019-06-26T07:23:34.173Z,62.20
2019-06-26T07:26:02.642Z,61.40
2019-06-26T07:28:31.094Z,60.30
2019-06-26T07:30:59.566Z,59.50
2019-06-26T07:33:27.995Z,59.00
2019-06-26T07:35:56.521Z,57.90
2019-06-26T07:38:24.950Z,58.90
2019-06-26T07:40:53.418Z,57.90
2019-06-26T07:43:21.936Z,58.40
2019-06-26T07:45:50.458Z,58.70
2019-06-26T07:48:18.896Z,57.30
2019-06-26T07:50:47.327Z,57.60
2019-06-26T07:53:15.788Z,56.60
2019-06-26T07:55:44.232Z,57.80
2019-06-26T07:58:13.082Z,57.60
2019-06-26T08:00:41.518Z,57.40
2019-06-26T08:03:10.078Z,57.30
2019-06-26T08:05:42.476Z,55.90
2019-06-26T08:08:08.732Z,56.00
2019-06-26T08:10:37.170Z,56.30
2019-06-26T08:13:05.629Z,56.20
2019-06-26T08:15:34.050Z,55.20
2019-06-26T08:18:02.589Z,55.80
2019-06-26T08:20:31.017Z,55.90
2019-06-26T08:22:59.628Z,55.20
2019-06-26T08:25:28.053Z,56.10
2019-06-26T08:27:56.800Z,56.20
2019-06-26T08:30:25.336Z,55.10
2019-06-26T08:32:53.798Z,55.40
2019-06-26T08:35:22.302Z,53.50
2019-06-26T08:37:50.842Z,53.40
2019-06-26T08:40:19.678Z,52.10
2019-06-26T08:42:48.155Z,51.30
2019-06-26T08:45:17.232Z,51.90
2019-06-26T08:47:45.795Z,49.80
2019-06-26T08:50:16.251Z,49.40
2019-06-26T08:52:44.699Z,50.80
2019-06-26T08:55:13.790Z,48.70
2019-06-26T08:57:42.293Z,49.00
2019-06-26T09:00:12.004Z,48.90
2019-06-26T09:02:40.597Z,49.10
2019-06-26T09:05:09.502Z,49.20
2019-06-26T09:07:37.938Z,50.50
2019-06-26T09:10:10.198Z,49.40
2019-06-26T09:12:38.729Z,49.30
2019-06-26T09:15:07.719Z,49.30
2019-06-26T09:17:36.902Z,49.00
2019-06-26T09:20:06.086Z,49.90
2019-06-26T09:22:34.814Z,49.40
2019-06-26T09:25:20.155Z,49.30
2019-06-26T09:27:34.330Z,48.90
2019-06-26T09:30:03.034Z,48.30
2019-06-26T09:32:31.554Z,49.00
2019-06-26T09:35:00.079Z,48.40
2019-06-26T09:37:28.713Z,46.20
2019-06-26T09:39:57.302Z,44.60
2019-06-26T09:42:25.745Z,44.80
2019-06-26T09:44:54.275Z,43.90
2019-06-26T09:47:22.737Z,42.80
2019-06-26T09:49:51.271Z,41.50
2019-06-26T09:52:19.836Z,41.00
2019-06-26T09:54:48.557Z,40.30
2019-06-26T09:57:16.999Z,39.00
2019-06-26T09:59:45.543Z,38.50
2019-06-26T10:02:14.047Z,38.20
2019-06-26T10:04:42.683Z,38.70
2019-06-26T10:07:11.156Z,38.70
2019-06-26T10:09:40.803Z,39.20
2019-06-26T10:12:09.353Z,38.70
2019-06-26T10:14:47.174Z,38.50
2019-06-26T10:17:08.102Z,38.40
2019-06-26T10:19:36.699Z,38.60
2019-06-26T10:22:05.234Z,38.00
2019-06-26T10:24:33.756Z,37.30
2019-06-26T10:27:02.277Z,39.80
2019-06-26T10:29:33.367Z,41.90
2019-06-26T10:32:02.765Z,42.90
2019-06-26T10:34:31.293Z,43.00
2019-06-26T10:36:59.760Z,45.00
2019-06-26T10:39:28.181Z,45.30
2019-06-26T10:41:56.834Z,45.60
2019-06-26T10:44:25.682Z,46.60
2019-06-26T10:46:54.139Z,46.00
2019-06-26T10:49:26.948Z,45.70
2019-06-26T10:51:52.975Z,45.40
2019-06-26T10:54:21.425Z,45.60
2019-06-26T10:56:49.910Z,45.00
2019-06-26T10:59:18.354Z,44.70
2019-06-26T11:01:47.090Z,44.40
2019-06-26T11:04:15.538Z,45.60
2019-06-26T11:06:44.098Z,44.50
2019-06-26T11:09:12.602Z,44.60
2019-06-26T11:11:41.095Z,44.70
2019-06-26T11:14:09.548Z,45.40
2019-06-26T11:16:38.065Z,45.90
2019-06-26T11:19:06.698Z,45.40
2019-06-26T11:21:35.249Z,44.90
2019-06-26T11:24:03.862Z,44.80
2019-06-26T11:26:32.393Z,45.80
2019-06-26T11:29:00.936Z,44.10
2019-06-26T11:31:29.568Z,44.20
2019-06-26T11:33:58.149Z,43.40
2019-06-26T11:36:26.604Z,43.40
2019-06-26T11:38:55.196Z,42.50
2019-06-26T11:41:23.775Z,42.50
2019-06-26T11:43:52.235Z,42.90
2019-06-26T11:46:20.671Z,43.10
2019-06-26T11:48:49.255Z,41.90
2019-06-26T11:51:17.763Z,41.80
2019-06-26T11:53:46.247Z,41.70
2019-06-26T11:56:14.804Z,41.80
2019-06-26T11:58:43.335Z,40.80
2019-06-26T12:01:11.844Z,40.70
2019-06-26T12:03:40.371Z,40.50
2019-06-26T12:06:18.305Z,40.10
2019-06-26T12:08:58.173Z,41.60
2019-06-26T12:11:26.618Z,41.00
2019-06-26T12:13:55.193Z,41.20
2019-06-26T12:16:23.717Z,40.60
2019-06-26T12:18:52.244Z,41.30
2019-06-26T12:21:20.679Z,41.50
2019-06-26T12:23:49.161Z,40.60
2019-06-26T12:26:17.696Z,40.90
2019-06-26T12:28:46.270Z,41.80
2019-06-26T12:31:14.749Z,41.50
2019-06-26T12:33:43.482Z,41.00
2019-06-26T12:36:12.039Z,41.20
2019-06-26T12:38:40.564Z,41.20
2019-06-26T12:41:09.107Z,41.20
2019-06-26T12:43:37.582Z,40.60
2019-06-26T12:46:06.130Z,40.70
2019-06-26T12:48:34.658Z,41.10
2019-06-26T12:51:10.290Z,41.20
2019-06-26T12:53:38.954Z,40.80
2019-06-26T12:56:07.492Z,39.50
2019-06-26T12:58:36.449Z,39.70
2019-06-26T13:01:04.965Z,39.60
2019-06-26T13:03:33.436Z,39.60
2019-06-26T13:06:02.273Z,39.10
2019-06-26T13:08:30.710Z,39.70
2019-06-26T13:10:59.541Z,39.70
2019-06-26T13:13:28.054Z,39.40
2019-06-26T13:15:56.521Z,40.80
2019-06-26T13:18:25.203Z,40.40
2019-06-26T13:20:53.968Z,39.60
2019-06-26T13:23:22.581Z,40.10
2019-06-26T13:25:51.230Z,39.80
2019-06-26T13:28:19.686Z,39.70
2019-06-26T13:30:48.241Z,40.80
2019-06-26T13:33:16.761Z,39.50
2019-06-26T13:35:45.227Z,40.60
2019-06-26T13:38:13.822Z,39.70
2019-06-26T13:40:42.346Z,39.70
2019-06-26T13:43:10.865Z,39.20
2019-06-26T13:45:39.416Z,40.70
2019-06-26T13:48:08.119Z,39.10
2019-06-26T13:50:36.666Z,39.40
2019-06-26T13:53:05.226Z,39.50
2019-06-26T13:55:33.823Z,38.40
2019-06-26T13:58:02.433Z,38.80
2019-06-26T14:00:30.878Z,38.50
2019-06-26T14:02:59.493Z,38.00
2019-06-26T14:05:29.558Z,37.70
2019-06-26T14:07:58.402Z,38.30
2019-06-26T14:10:26.930Z,37.70
2019-06-26T14:12:55.477Z,36.80
2019-06-26T14:15:24.666Z,37.00
2019-06-26T14:17:53.185Z,36.70
2019-06-26T14:20:21.704Z,36.80
2019-06-26T14:22:50.393Z,35.20
2019-06-26T14:25:18.998Z,34.60
2019-06-26T14:27:48.201Z,35.20
2019-06-26T14:30:16.862Z,34.10
2019-06-26T14:32:45.477Z,32.90
2019-06-26T14:35:14.056Z,32.30
2019-06-26T14:37:42.542Z,32.30
2019-06-26T14:40:11.297Z,32.70
2019-06-26T14:42:39.850Z,34.20
2019-06-26T14:45:08.840Z,35.20
2019-06-26T14:47:37.391Z,33.60
2019-06-26T14:50:06.754Z,33.70
2019-06-26T14:52:35.310Z,33.70
2019-06-26T14:55:05.703Z,32.10
2019-06-26T14:57:34.181Z,31.00
2019-06-26T15:00:03.057Z,31.60
2019-06-26T15:02:31.995Z,31.20
2019-06-26T15:05:00.665Z,30.90
2019-06-26T15:07:29.108Z,32.30
2019-06-26T15:09:57.555Z,33.60
2019-06-26T15:12:26.076Z,34.40
2019-06-26T15:14:54.588Z,35.20
2019-06-26T15:17:23.101Z,33.40
2019-06-26T15:19:51.866Z,32.70
2019-06-26T15:22:20.449Z,32.30
2019-06-26T15:24:49.635Z,32.70
2019-06-26T15:27:18.070Z,32.80
2019-06-26T15:29:47.329Z,32.30
2019-06-26T15:32:15.954Z,32.30
2019-06-26T15:34:44.416Z,32.60
2019-06-26T15:37:12.853Z,32.60
2019-06-26T15:39:41.329Z,32.60
2019-06-26T15:42:09.902Z,33.00
2019-06-26T15:44:38.455Z,31.50
2019-06-26T15:47:06.928Z,32.30
2019-06-26T15:49:35.541Z,32.70
2019-06-26T15:52:14.650Z,33.10
2019-06-26T15:54:34.477Z,31.60
2019-06-26T15:57:03.029Z,32.10
2019-06-26T15:59:31.549Z,32.60
2019-06-26T16:02:00.164Z,33.90
2019-06-26T16:04:28.625Z,30.60
2019-06-26T16:06:57.069Z,30.20
2019-06-26T16:09:25.522Z,31.20
2019-06-26T16:11:54.113Z,30.20
2019-06-26T16:14:22.660Z,31.10
2019-06-26T16:16:53.089Z,30.50
2019-06-26T16:19:23.302Z,31.60
2019-06-26T16:21:51.774Z,29.90
2019-06-26T16:24:20.259Z,29.60
2019-06-26T16:26:48.777Z,30.80
2019-06-26T16:29:17.513Z,31.20
2019-06-26T16:31:45.958Z,29.90
2019-06-26T16:34:14.456Z,31.50
2019-06-26T16:36:42.949Z,30.30
2019-06-26T16:39:11.515Z,30.60
2019-06-26T16:41:40.046Z,32.00
2019-06-26T16:44:08.478Z,31.70
2019-06-26T16:46:36.950Z,29.20
2019-06-26T16:49:05.546Z,28.50
2019-06-26T16:51:34.088Z,29.40
2019-06-26T16:54:02.646Z,29.80
2019-06-26T16:56:31.184Z,29.90
2019-06-26T16:58:59.630Z,28.90
2019-06-26T17:01:28.098Z,28.60
2019-06-26T17:03:57.033Z,29.20
2019-06-26T17:06:26.003Z,29.80
2019-06-26T17:08:58.628Z,30.60
2019-06-26T17:11:27.167Z,31.30
2019-06-26T17:13:55.826Z,32.40
2019-06-26T17:16:24.365Z,33.00
2019-06-26T17:18:52.899Z,33.40
2019-06-26T17:21:21.424Z,33.80
2019-06-26T17:23:49.874Z,35.00
2019-06-26T17:26:18.434Z,34.40
2019-06-26T17:28:46.872Z,36.40
2019-06-26T17:31:15.437Z,36.60
2019-06-26T17:33:43.883Z,36.20
2019-06-26T17:36:12.334Z,37.00
2019-06-26T17:38:40.811Z,36.40
2019-06-26T17:41:09.298Z,37.40
2019-06-26T17:43:37.974Z,37.70
2019-06-26T17:46:06.774Z,36.90
2019-06-26T17:48:37.659Z,36.60
2019-06-26T17:51:06.320Z,36.10
2019-06-26T17:53:34.776Z,36.40
2019-06-26T17:56:03.413Z,35.80
2019-06-26T17:58:31.895Z,35.40
2019-06-26T18:01:00.601Z,33.50
2019-06-26T18:03:29.067Z,33.40
2019-06-26T18:05:57.668Z,32.70
2019-06-26T18:08:26.110Z,32.60
2019-06-26T18:10:54.552Z,32.30
2019-06-26T18:13:23.112Z,32.50
2019-06-26T18:15:51.609Z,33.00
2019-06-26T18:18:20.166Z,32.80
2019-06-26T18:20:48.626Z,33.70
2019-06-26T18:23:17.107Z,34.00
2019-06-26T18:25:53.834Z,34.30
2019-06-26T18:28:15.893Z,34.70
2019-06-26T18:30:44.336Z,35.40
2019-06-26T18:33:12.878Z,36.00
2019-06-26T18:35:41.390Z,36.40
2019-06-26T18:38:09.945Z,36.90
2019-06-26T18:40:38.388Z,37.50
2019-06-26T18:43:06.938Z,38.20
2019-06-26T18:45:35.455Z,38.90
2019-06-26T18:48:04.171Z,39.50
2019-06-26T18:50:32.797Z,40.30
2019-06-26T18:53:01.543Z,40.50
2019-06-26T18:55:30.157Z,41.00
2019-06-26T18:57:58.922Z,41.60
2019-06-26T19:00:27.410Z,42.00
2019-06-26T19:02:55.981Z,42.50
2019-06-26T19:05:24.572Z,43.10
2019-06-26T19:07:53.151Z,43.80
2019-06-26T19:10:21.596Z,44.00
2019-06-26T19:12:50.270Z,44.30
2019-06-26T19:15:18.823Z,44.90
2019-06-26T19:17:47.451Z,45.40
2019-06-26T19:20:16.720Z,45.80
2019-06-26T19:22:47.436Z,46.30
2019-06-26T19:25:16.045Z,46.80
2019-06-26T19:27:45.426Z,47.30
2019-06-26T19:30:15.826Z,49.90
2019-06-26T19:32:44.280Z,53.30
2019-06-26T19:35:20.545Z,54.40
2019-06-26T19:37:43.239Z,54.00
2019-06-26T19:40:12.454Z,54.20
2019-06-26T19:42:40.915Z,54.20
2019-06-26T19:45:12.432Z,53.70
2019-06-26T19:47:41.028Z,52.70
2019-06-26T19:50:11.546Z,52.90
2019-06-26T19:52:40.058Z,54.00
2019-06-26T19:55:08.810Z,54.00
2019-06-26T19:57:37.234Z,54.40
2019-06-26T20:00:08.523Z,57.10
2019-06-26T20:02:36.959Z,55.40
2019-06-26T20:05:08.082Z,53.90
2019-06-26T20:07:37.127Z,53.50
2019-06-26T20:10:07.148Z,54.60
2019-06-26T20:12:35.619Z,54.80
2019-06-26T20:15:05.663Z,55.30
2019-06-26T20:17:34.281Z,55.90
2019-06-26T20:20:03.787Z,56.20
2019-06-26T20:22:32.347Z,56.50
2019-06-26T20:25:03.040Z,56.30
2019-06-26T20:27:31.570Z,56.70
2019-06-26T20:30:00.104Z,56.70
2019-06-26T20:32:28.614Z,56.90
2019-06-26T20:34:57.062Z,57.60
2019-06-26T20:37:25.534Z,57.60
2019-06-26T20:39:54.116Z,58.20
2019-06-26T20:42:22.591Z,58.00
2019-06-26T20:44:51.197Z,58.40
2019-06-26T20:47:19.749Z,59.10
2019-06-26T20:49:53.113Z,59.00
2019-06-26T20:52:18.425Z,59.60
2019-06-26T20:55:00.077Z,60.00
2019-06-26T20:57:17.446Z,60.50
2019-06-26T20:59:45.949Z,61.00
2019-06-26T21:02:14.424Z,62.20
2019-06-26T21:04:43.154Z,64.10
2019-06-26T21:07:11.677Z,65.40
2019-06-26T21:09:40.186Z,64.30
2019-06-26T21:12:08.884Z,63.70
2019-06-26T21:14:37.340Z,63.30
2019-06-26T21:17:05.908Z,63.50
2019-06-26T21:19:34.426Z,64.10
2019-06-26T21:22:02.908Z,65.70
2019-06-26T21:24:31.449Z,66.10
2019-06-26T21:26:59.996Z,65.70
2019-06-26T21:29:29.518Z,65.80
2019-06-26T21:31:58.049Z,65.60
2019-06-26T21:34:26.644Z,65.10
2019-06-26T21:36:55.285Z,64.50
2019-06-26T21:39:23.798Z,64.60
2019-06-26T21:41:52.337Z,65.30
2019-06-26T21:44:21.237Z,65.30
2019-06-26T21:46:49.716Z,65.70
2019-06-26T21:49:18.192Z,65.70
2019-06-26T21:51:46.757Z,66.50
2019-06-26T21:54:15.205Z,66.90
2019-06-26T21:56:43.684Z,67.30
2019-06-26T21:59:12.166Z,67.40
2019-06-26T22:01:40.730Z,67.10
2019-06-26T22:04:09.675Z,67.20
2019-06-26T22:06:38.627Z,69.50
2019-06-26T22:09:08.338Z,70.70
2019-06-26T22:11:36.901Z,72.20
2019-06-26T22:14:07.307Z,70.40
2019-06-26T22:16:35.882Z,68.70
2019-06-26T22:19:04.465Z,67.50
2019-06-26T22:21:32.908Z,66.70
2019-06-26T22:24:01.383Z,66.00
2019-06-26T22:26:29.932Z,65.10
2019-06-26T22:28:58.622Z,64.80
2019-06-26T22:31:27.144Z,64.80
2019-06-26T22:33:55.686Z,64.10
2019-06-26T22:36:24.389Z,64.50
2019-06-26T22:38:53.105Z,65.30
2019-06-26T22:41:21.640Z,65.70
2019-06-26T22:43:50.112Z,66.80
2019-06-26T22:46:18.558Z,66.20
2019-06-26T22:48:47.143Z,65.80
2019-06-26T22:51:15.667Z,65.70
2019-06-26T22:53:44.136Z,65.30
2019-06-26T22:56:12.767Z,65.20
2019-06-26T22:58:41.410Z,65.00
2019-06-26T23:01:09.968Z,64.80
2019-06-26T23:03:38.456Z,65.00
2019-06-26T23:06:06.918Z,65.20
2019-06-26T23:08:35.372Z,65.40
2019-06-26T23:11:03.924Z,65.70
2019-06-26T23:13:32.372Z,65.90
2019-06-26T23:16:01.015Z,65.90
2019-06-26T23:18:29.520Z,66.00
2019-06-26T23:20:58.074Z,66.10
2019-06-26T23:23:26.574Z,66.00
2019-06-26T23:25:56.087Z,65.60
2019-06-26T23:28:24.656Z,65.40
2019-06-26T23:30:53.227Z,65.80
2019-06-26T23:33:22.345Z,65.30
2019-06-26T23:35:51.183Z,65.50
2019-06-26T23:38:19.799Z,65.60
2019-06-26T23:40:48.345Z,65.70
2019-06-26T23:43:16.806Z,65.70
2019-06-26T23:45:45.346Z,65.70
2019-06-26T23:48:13.804Z,65.70
2019-06-26T23:50:42.430Z,65.70
2019-06-26T23:53:10.888Z,65.60
2019-06-26T23:55:39.703Z,65.50
2019-06-26T23:58:08.215Z,65.60
